createdAt,value
2022-09-03T00:00:01.248Z,54.60
2022-09-03T00:02:37.262Z,54.60
2022-09-03T00:05:10.904Z,54.70
2022-09-03T00:07:47.943Z,54.70
2022-09-03T00:10:22.506Z,54.70
2022-09-03T00:12:54.099Z,54.80
2022-09-03T00:15:23.532Z,54.80
2022-09-03T00:17:56.268Z,54.80
2022-09-03T00:20:29.626Z,54.80
2022-09-03T00:23:01.285Z,54.80
2022-09-03T00:25:35.552Z,54.80
2022-09-03T00:28:08.021Z,54.90
2022-09-03T00:30:37.014Z,54.90
2022-09-03T00:33:10.537Z,54.90
2022-09-03T00:35:47.922Z,54.90
2022-09-03T00:38:15.878Z,54.90
2022-09-03T00:40:57.194Z,55.00
2022-09-03T00:43:36.509Z,55.00
2022-09-03T00:46:14.281Z,55.00
2022-09-03T00:48:56.521Z,55.00
2022-09-03T00:51:34.405Z,55.10
2022-09-03T00:54:10.943Z,54.40
2022-09-03T00:56:45.720Z,55.10
2022-09-03T00:59:31.209Z,55.10
2022-09-03T01:02:09.203Z,55.10
2022-09-03T01:04:50.421Z,55.10
2022-09-03T01:07:28.305Z,55.10
2022-09-03T01:10:08.406Z,55.20
2022-09-03T01:12:43.933Z,55.20
2022-09-03T01:15:16.276Z,55.30
2022-09-03T01:17:55.900Z,55.20
2022-09-03T01:20:43.465Z,55.20
2022-09-03T01:23:51.515Z,55.20
2022-09-03T01:26:40.749Z,55.30
2022-09-03T01:29:18.431Z,55.30
2022-09-03T01:31:57.486Z,55.30
2022-09-03T01:34:42.069Z,55.30
2022-09-03T01:37:19.060Z,55.40
2022-09-03T01:39:56.367Z,55.40
2022-09-03T01:42:46.948Z,55.40
2022-09-03T01:45:51.771Z,55.40
2022-09-03T01:48:47.365Z,55.40
2022-09-03T01:51:22.136Z,55.40
2022-09-03T01:54:21.185Z,55.40
2022-09-03T01:57:35.704Z,55.50
2022-09-03T02:00:08.363Z,55.50
2022-09-03T02:02:47.283Z,55.50
2022-09-03T02:05:18.273Z,55.50
2022-09-03T02:07:48.006Z,55.60
2022-09-03T02:10:18.714Z,55.60
2022-09-03T02:12:51.968Z,55.60
2022-09-03T02:15:23.202Z,55.60
2022-09-03T02:17:56.234Z,55.60
2022-09-03T02:20:27.809Z,55.60
2022-09-03T02:22:57.707Z,55.60
2022-09-03T02:25:31.433Z,55.60
2022-09-03T02:28:00.162Z,55.70
2022-09-03T02:30:27.875Z,55.60
2022-09-03T02:32:56.973Z,55.60
2022-09-03T02:35:24.679Z,55.70
2022-09-03T02:37:52.445Z,55.70
2022-09-03T02:40:20.175Z,55.70
2022-09-03T02:42:48.306Z,55.70
2022-09-03T02:45:24.929Z,56.40
2022-09-03T02:47:57.694Z,55.80
2022-09-03T02:50:25.721Z,55.80
2022-09-03T02:52:54.091Z,55.80
2022-09-03T02:55:22.120Z,55.80
2022-09-03T02:57:49.916Z,55.80
2022-09-03T03:00:18.956Z,55.80
2022-09-03T03:02:47.511Z,55.90
2022-09-03T03:05:25.599Z,55.90
2022-09-03T03:07:53.359Z,55.90
2022-09-03T03:10:21.058Z,55.90
2022-09-03T03:12:48.902Z,55.90
2022-09-03T03:15:16.672Z,55.90
2022-09-03T03:17:44.372Z,55.90
2022-09-03T03:20:12.178Z,55.90
2022-09-03T03:22:41.247Z,56.00
2022-09-03T03:25:09.808Z,56.00
2022-09-03T03:27:41.742Z,56.00
2022-09-03T03:30:11.400Z,56.00
2022-09-03T03:32:39.429Z,56.00
2022-09-03T03:35:08.124Z,56.00
2022-09-03T03:37:36.537Z,56.00
2022-09-03T03:40:06.678Z,56.00
2022-09-03T03:42:35.383Z,56.10
2022-09-03T03:45:03.404Z,56.10
2022-09-03T03:47:32.023Z,56.10
2022-09-03T03:50:00.250Z,56.10
2022-09-03T03:52:28.877Z,56.10
2022-09-03T03:54:57.170Z,56.10
2022-09-03T03:57:26.644Z,56.20
2022-09-03T03:59:54.343Z,56.20
2022-09-03T04:02:22.224Z,56.20
2022-09-03T04:04:50.026Z,56.20
2022-09-03T04:07:17.783Z,56.20
2022-09-03T04:09:45.523Z,56.20
2022-09-03T04:12:13.228Z,56.20
2022-09-03T04:14:42.509Z,56.20
2022-09-03T04:17:10.316Z,56.20
2022-09-03T04:19:38.101Z,56.20
2022-09-03T04:22:05.998Z,56.20
2022-09-03T04:24:33.707Z,56.20
2022-09-03T04:27:01.425Z,56.20
2022-09-03T04:29:30.665Z,56.20
2022-09-03T04:32:17.545Z,56.20
2022-09-03T04:34:45.349Z,56.30
2022-09-03T04:37:13.097Z,56.30
2022-09-03T04:39:40.860Z,56.30
2022-09-03T04:42:08.593Z,56.30
2022-09-03T04:44:38.318Z,56.30
2022-09-03T04:47:07.644Z,56.30
2022-09-03T04:49:35.460Z,56.30
2022-09-03T04:52:03.653Z,56.30
2022-09-03T04:54:32.453Z,56.30
2022-09-03T04:57:00.168Z,56.30
2022-09-03T04:59:27.887Z,56.30
2022-09-03T05:01:56.591Z,56.30
2022-09-03T05:04:25.742Z,56.30
2022-09-03T05:06:53.505Z,56.30
2022-09-03T05:09:21.389Z,56.30
2022-09-03T05:11:49.092Z,56.30
2022-09-03T05:14:16.795Z,56.30
2022-09-03T05:16:44.722Z,56.30
2022-09-03T05:19:20.943Z,56.40
2022-09-03T05:21:49.973Z,56.40
2022-09-03T05:24:18.497Z,56.40
2022-09-03T05:26:46.213Z,56.40
2022-09-03T05:29:14.233Z,56.40
2022-09-03T05:31:42.010Z,56.40
2022-09-03T05:34:09.998Z,56.40
2022-09-03T05:36:38.989Z,56.40
2022-09-03T05:39:08.649Z,56.40
2022-09-03T05:41:36.411Z,56.40
2022-09-03T05:44:05.983Z,56.40
2022-09-03T05:46:37.435Z,56.40
2022-09-03T05:49:06.942Z,56.40
2022-09-03T05:51:36.090Z,56.40
2022-09-03T05:54:04.104Z,56.40
2022-09-03T05:56:35.617Z,56.40
2022-09-03T05:59:07.321Z,56.40
2022-09-03T06:01:36.793Z,56.40
2022-09-03T06:04:06.465Z,56.40
2022-09-03T06:06:35.381Z,56.40
2022-09-03T06:09:05.133Z,56.40
2022-09-03T06:11:37.387Z,56.50
2022-09-03T06:14:08.006Z,56.50
2022-09-03T06:16:38.782Z,56.40
2022-09-03T06:19:09.590Z,56.50
2022-09-03T06:21:39.936Z,56.50
2022-09-03T06:24:07.848Z,56.50
2022-09-03T06:26:36.909Z,56.60
2022-09-03T06:29:04.974Z,56.60
2022-09-03T06:31:32.864Z,56.50
2022-09-03T06:34:04.009Z,56.60
2022-09-03T06:36:32.469Z,56.60
2022-09-03T06:39:00.416Z,56.60
2022-09-03T06:41:31.665Z,56.50
2022-09-03T06:44:03.112Z,56.50
2022-09-03T06:46:32.343Z,56.30
2022-09-03T06:49:00.331Z,56.40
2022-09-03T06:51:29.906Z,56.50
2022-09-03T06:54:01.609Z,56.50
2022-09-03T06:56:29.498Z,56.60
2022-09-03T06:58:58.551Z,56.50
2022-09-03T07:01:31.127Z,56.60
2022-09-03T07:04:01.033Z,56.60
2022-09-03T07:06:30.849Z,56.60
2022-09-03T07:09:00.123Z,56.70
2022-09-03T07:11:31.206Z,56.70
2022-09-03T07:14:00.187Z,56.80
2022-09-03T07:16:31.546Z,56.80
2022-09-03T07:19:00.898Z,56.90
2022-09-03T07:21:30.277Z,56.90
2022-09-03T07:23:58.626Z,57.00
2022-09-03T07:26:28.841Z,57.00
2022-09-03T07:28:56.965Z,57.10
2022-09-03T07:31:26.777Z,57.80
2022-09-03T07:33:56.637Z,57.20
2022-09-03T07:36:26.118Z,57.30
2022-09-03T07:38:57.131Z,57.30
2022-09-03T07:41:29.110Z,57.40
2022-09-03T07:43:57.472Z,57.40
2022-09-03T07:46:27.604Z,57.50
2022-09-03T07:48:58.797Z,57.50
2022-09-03T07:51:29.673Z,57.70
2022-09-03T07:53:58.904Z,57.70
2022-09-03T07:56:27.341Z,57.70
2022-09-03T07:58:56.309Z,57.80
2022-09-03T08:01:26.151Z,57.80
2022-09-03T08:03:56.093Z,57.80
2022-09-03T08:06:25.545Z,57.80
2022-09-03T08:09:04.119Z,57.90
2022-09-03T08:11:34.896Z,57.90
2022-09-03T08:14:06.397Z,57.90
2022-09-03T08:16:37.183Z,57.90
2022-09-03T08:19:07.364Z,58.00
2022-09-03T08:21:35.701Z,58.00
2022-09-03T08:24:03.920Z,58.00
2022-09-03T08:26:33.269Z,58.10
2022-09-03T08:29:01.873Z,58.10
2022-09-03T08:31:30.914Z,58.10
2022-09-03T08:34:06.655Z,58.20
2022-09-03T08:36:37.969Z,58.20
2022-09-03T08:39:09.499Z,58.20
2022-09-03T08:42:04.884Z,58.30
2022-09-03T08:44:46.923Z,58.30
2022-09-03T08:47:19.694Z,58.40
2022-09-03T08:49:54.401Z,58.40
2022-09-03T08:52:29.357Z,58.40
2022-09-03T08:55:06.882Z,58.40
2022-09-03T08:57:44.292Z,58.50
2022-09-03T09:00:13.065Z,58.50
2022-09-03T09:02:54.136Z,58.50
2022-09-03T09:05:26.678Z,58.60
2022-09-03T09:08:04.673Z,58.60
2022-09-03T09:10:39.933Z,58.70
2022-09-03T09:13:20.879Z,58.70
2022-09-03T09:15:56.504Z,58.80
2022-09-03T09:18:38.511Z,58.80
2022-09-03T09:21:14.210Z,58.80
2022-09-03T09:23:47.681Z,58.80
2022-09-03T09:26:18.068Z,58.80
2022-09-03T09:28:48.026Z,58.90
2022-09-03T09:31:20.188Z,59.00
2022-09-03T09:33:48.163Z,59.10
2022-09-03T09:36:19.236Z,59.20
2022-09-03T09:38:48.713Z,59.30
2022-09-03T09:41:19.297Z,59.50
2022-09-03T09:43:47.933Z,59.80
2022-09-03T09:46:21.489Z,59.90
2022-09-03T09:48:53.300Z,60.20
2022-09-03T09:51:23.544Z,60.40
2022-09-03T09:54:03.910Z,60.70
2022-09-03T09:56:32.039Z,61.00
2022-09-03T09:59:07.838Z,61.30
2022-09-03T10:01:38.867Z,61.60
2022-09-03T10:04:11.695Z,61.70
2022-09-03T10:06:56.820Z,61.80
2022-09-03T10:09:30.953Z,61.90
2022-09-03T10:12:08.127Z,61.90
2022-09-03T10:14:41.114Z,62.90
2022-09-03T10:17:15.827Z,62.10
2022-09-03T10:20:09.937Z,63.00
2022-09-03T10:22:52.437Z,62.40
2022-09-03T10:25:30.187Z,62.40
2022-09-03T10:28:01.981Z,62.40
2022-09-03T10:30:30.823Z,62.50
2022-09-03T10:33:07.981Z,63.50
2022-09-03T10:35:42.013Z,62.70
2022-09-03T10:38:18.719Z,62.90
2022-09-03T10:40:54.321Z,62.90
2022-09-03T10:43:45.741Z,63.80
2022-09-03T10:46:23.868Z,63.10
2022-09-03T10:49:10.479Z,63.20
2022-09-03T10:51:49.226Z,63.20
2022-09-03T10:54:35.598Z,63.30
2022-09-03T10:57:14.426Z,63.40
2022-09-03T10:59:55.821Z,63.60
2022-09-03T11:02:50.668Z,63.70
2022-09-03T11:05:22.838Z,63.70
2022-09-03T11:07:58.448Z,63.80
2022-09-03T11:10:30.688Z,63.90
2022-09-03T11:13:07.125Z,64.00
2022-09-03T11:15:40.604Z,64.10
2022-09-03T11:18:17.423Z,64.30
2022-09-03T11:20:45.769Z,64.50
2022-09-03T11:23:15.067Z,64.80
2022-09-03T11:25:45.653Z,64.90
2022-09-03T11:28:29.087Z,65.10
2022-09-03T11:31:13.605Z,65.20
2022-09-03T11:33:46.284Z,65.30
2022-09-03T11:36:15.100Z,65.30
2022-09-03T11:38:43.005Z,65.40
2022-09-03T11:41:15.612Z,65.50
2022-09-03T11:43:45.351Z,65.60
2022-09-03T11:46:28.689Z,65.70
2022-09-03T11:48:57.709Z,65.70
2022-09-03T11:51:35.708Z,65.80
2022-09-03T11:54:05.034Z,65.90
2022-09-03T11:56:34.211Z,66.00
2022-09-03T11:59:07.952Z,66.00
2022-09-03T12:01:38.076Z,66.10
2022-09-03T12:04:08.044Z,66.10
2022-09-03T12:07:07.428Z,66.20
2022-09-03T12:10:00.412Z,66.30
2022-09-03T12:12:48.738Z,66.20
2022-09-03T12:15:31.861Z,66.10
2022-09-03T12:18:22.680Z,66.10
2022-09-03T12:21:02.552Z,66.10
2022-09-03T12:23:32.284Z,66.20
2022-09-03T12:26:03.998Z,66.20
2022-09-03T12:28:36.215Z,66.20
2022-09-03T12:31:20.984Z,66.20
2022-09-03T12:33:51.354Z,66.20
2022-09-03T12:36:19.286Z,66.10
2022-09-03T12:39:10.516Z,66.20
2022-09-03T12:41:35.753Z,66.00
2022-09-03T12:44:04.415Z,66.00
2022-09-03T12:46:34.917Z,65.90
2022-09-03T12:52:03.159Z,66.00
2022-09-03T12:54:33.835Z,66.00
2022-09-03T12:57:02.058Z,66.00
2022-09-03T12:59:33.653Z,66.30
2022-09-03T13:02:07.561Z,66.00
2022-09-03T13:04:37.865Z,66.00
2022-09-03T13:07:12.463Z,66.00
2022-09-03T13:09:42.301Z,66.70
2022-09-03T13:12:22.693Z,65.80
2022-09-03T13:14:52.682Z,65.80
2022-09-03T13:17:37.714Z,65.80
2022-09-03T13:20:19.842Z,65.80
2022-09-03T13:23:07.738Z,65.80
2022-09-03T13:25:42.920Z,65.90
2022-09-03T13:28:27.358Z,65.90
2022-09-03T13:31:01.576Z,65.80
2022-09-03T13:33:36.183Z,66.60
2022-09-03T13:36:10.303Z,65.80
2022-09-03T13:38:44.096Z,65.80
2022-09-03T13:41:19.573Z,65.90
2022-09-03T13:43:53.680Z,65.90
2022-09-03T13:46:27.176Z,66.00
2022-09-03T13:49:25.031Z,66.10
2022-09-03T13:51:57.421Z,66.10
2022-09-03T13:54:48.026Z,66.00
2022-09-03T13:57:29.932Z,66.10
2022-09-03T14:00:02.462Z,66.20
2022-09-03T14:02:51.574Z,66.20
2022-09-03T14:05:35.304Z,66.30
2022-09-03T14:08:10.108Z,66.40
2022-09-03T14:10:53.705Z,66.30
2022-09-03T14:13:31.002Z,66.40
2022-09-03T14:16:05.727Z,66.40
2022-09-03T14:18:43.878Z,66.40
2022-09-03T14:21:19.540Z,66.40
2022-09-03T14:23:52.253Z,66.40
2022-09-03T14:26:38.628Z,66.40
2022-09-03T14:29:16.160Z,66.50
2022-09-03T14:32:08.083Z,66.50
2022-09-03T14:34:47.370Z,66.50
2022-09-03T14:37:33.564Z,66.50
2022-09-03T14:40:13.815Z,66.50
2022-09-03T14:43:16.539Z,66.50
2022-09-03T14:46:11.916Z,66.50
2022-09-03T14:49:01.778Z,66.50
2022-09-03T14:51:44.314Z,66.50
2022-09-03T14:54:47.655Z,66.40
2022-09-03T14:57:44.097Z,66.40
2022-09-03T15:00:18.375Z,66.50
2022-09-03T15:03:24.408Z,66.60
2022-09-03T15:06:14.834Z,66.70
2022-09-03T15:08:55.435Z,66.60
2022-09-03T15:11:27.549Z,66.60
2022-09-03T15:14:06.138Z,66.60
2022-09-03T15:16:48.063Z,66.60
2022-09-03T15:19:34.501Z,66.60
2022-09-03T15:22:13.080Z,66.70
2022-09-03T15:24:51.664Z,66.70
2022-09-03T15:27:38.400Z,66.70
2022-09-03T15:30:09.792Z,66.80
2022-09-03T15:32:59.505Z,66.80
2022-09-03T15:36:00.239Z,67.00
2022-09-03T15:38:41.548Z,67.20
2022-09-03T15:41:18.832Z,67.30
2022-09-03T15:43:51.592Z,67.40
2022-09-03T15:46:49.401Z,67.50
2022-09-03T15:49:29.002Z,67.80
2022-09-03T15:52:06.955Z,67.80
2022-09-03T15:54:43.909Z,67.90
2022-09-03T15:57:19.389Z,67.80
2022-09-03T15:59:55.556Z,67.80
2022-09-03T16:02:33.317Z,67.70
2022-09-03T16:05:08.681Z,67.80
2022-09-03T16:07:50.140Z,67.70
2022-09-03T16:10:24.639Z,67.60
2022-09-03T16:13:03.582Z,67.50
2022-09-03T16:15:37.340Z,67.50
2022-09-03T16:18:12.009Z,67.40
2022-09-03T16:20:45.145Z,67.40
2022-09-03T16:23:20.134Z,67.40
2022-09-03T16:25:52.697Z,67.40
2022-09-03T16:28:28.169Z,67.20
2022-09-03T16:31:11.976Z,67.20
2022-09-03T16:33:48.241Z,67.20
2022-09-03T16:36:33.361Z,67.10
2022-09-03T16:39:08.040Z,67.00
2022-09-03T16:41:43.993Z,67.00
2022-09-03T16:44:21.423Z,67.00
2022-09-03T16:47:01.842Z,67.80
2022-09-03T16:49:43.643Z,66.90
2022-09-03T16:52:26.594Z,66.90
2022-09-03T16:55:18.647Z,66.90
2022-09-03T16:57:57.341Z,66.90
2022-09-03T17:00:35.011Z,66.90
2022-09-03T17:03:33.829Z,66.90
2022-09-03T17:06:26.469Z,66.90
2022-09-03T17:09:03.682Z,66.80
2022-09-03T17:11:53.339Z,66.80
2022-09-03T17:14:47.210Z,66.80
2022-09-03T17:17:29.261Z,66.80
2022-09-03T17:20:05.617Z,66.70
2022-09-03T17:22:44.234Z,66.70
2022-09-03T17:25:22.896Z,66.60
2022-09-03T17:27:53.081Z,66.60
2022-09-03T17:30:28.686Z,66.50
2022-09-03T17:33:40.046Z,66.50
2022-09-03T17:36:14.212Z,66.50
2022-09-03T17:39:06.190Z,66.50
2022-09-03T17:41:43.762Z,66.60
2022-09-03T17:44:20.868Z,66.70
2022-09-03T17:47:03.157Z,66.70
2022-09-03T17:49:42.174Z,66.90
2022-09-03T17:52:24.681Z,66.90
2022-09-03T17:54:55.595Z,67.00
2022-09-03T17:57:30.738Z,67.00
2022-09-03T18:00:02.789Z,67.10
2022-09-03T18:02:44.347Z,67.30
2022-09-03T18:05:19.880Z,67.20
2022-09-03T18:07:55.549Z,67.30
2022-09-03T18:10:30.227Z,68.20
2022-09-03T18:13:08.301Z,67.30
2022-09-03T18:15:40.389Z,67.30
2022-09-03T18:18:18.180Z,67.30
2022-09-03T18:21:26.613Z,67.30
2022-09-03T18:24:21.482Z,67.30
2022-09-03T18:27:13.541Z,67.30
2022-09-03T18:30:05.401Z,67.30
2022-09-03T18:32:50.850Z,67.30
2022-09-03T18:35:36.395Z,67.30
2022-09-03T18:38:22.353Z,67.30
2022-09-03T18:41:13.926Z,67.20
2022-09-03T18:44:10.863Z,67.30
2022-09-03T18:48:01.476Z,67.30
2022-09-03T18:50:16.785Z,67.30
2022-09-03T18:53:07.969Z,67.30
2022-09-03T18:56:01.985Z,67.30
2022-09-03T18:58:56.499Z,67.30
2022-09-03T19:01:50.475Z,67.40
2022-09-03T19:04:45.181Z,67.40
2022-09-03T19:07:38.182Z,67.40
2022-09-03T19:10:29.062Z,67.40
2022-09-03T19:13:29.167Z,67.50
2022-09-03T19:16:23.626Z,67.50
2022-09-03T19:19:24.637Z,67.50
2022-09-03T19:22:18.029Z,67.50
2022-09-03T19:25:04.364Z,67.50
2022-09-03T19:28:00.216Z,67.50
2022-09-03T19:31:00.517Z,67.50
2022-09-03T19:33:57.395Z,67.50
2022-09-03T19:36:47.835Z,67.50
2022-09-03T19:39:46.577Z,67.50
2022-09-03T19:42:40.529Z,67.50
2022-09-03T19:45:35.541Z,67.50
2022-09-03T19:48:29.801Z,67.60
2022-09-03T19:51:26.166Z,67.50
2022-09-03T19:54:13.080Z,67.50
2022-09-03T19:57:00.145Z,67.50
2022-09-03T19:59:54.656Z,67.50
2022-09-03T20:02:40.806Z,67.50
2022-09-03T20:05:28.705Z,67.40
2022-09-03T20:08:18.218Z,67.40
2022-09-03T20:10:48.703Z,67.40
2022-09-03T20:13:19.802Z,67.30
2022-09-03T20:15:55.402Z,67.30
2022-09-03T20:18:35.568Z,67.30
2022-09-03T20:21:12.521Z,67.30
2022-09-03T20:23:51.695Z,67.20
2022-09-03T20:26:33.502Z,67.20
2022-09-03T20:29:27.362Z,67.10
2022-09-03T20:32:04.317Z,67.10
2022-09-03T20:34:41.772Z,67.10
2022-09-03T20:37:24.313Z,67.00
2022-09-03T20:40:12.735Z,67.10
2022-09-03T20:42:52.817Z,67.00
2022-09-03T20:45:25.362Z,67.00
2022-09-03T20:48:09.352Z,67.00
2022-09-03T20:50:59.229Z,66.90
2022-09-03T20:53:43.826Z,67.00
2022-09-03T20:56:20.817Z,66.80
2022-09-03T20:58:55.354Z,66.80
2022-09-03T21:01:31.775Z,66.80
2022-09-03T21:04:13.771Z,66.70
2022-09-03T21:06:48.495Z,66.70
2022-09-03T21:09:29.474Z,66.70
2022-09-03T21:12:06.945Z,66.70
2022-09-03T21:14:40.037Z,66.60
2022-09-03T21:17:20.040Z,66.60
2022-09-03T21:20:01.627Z,66.60
2022-09-03T21:22:38.241Z,66.60
2022-09-03T21:25:09.514Z,66.50
2022-09-03T21:27:43.574Z,66.50
2022-09-03T21:30:15.217Z,66.50
2022-09-03T21:32:48.518Z,66.50
2022-09-03T21:35:22.088Z,66.40
2022-09-03T21:37:55.799Z,66.50
2022-09-03T21:40:29.280Z,66.40
2022-09-03T21:43:05.372Z,66.40
2022-09-03T21:45:40.087Z,66.40
2022-09-03T21:48:12.111Z,66.40
2022-09-03T21:50:48.806Z,66.40
2022-09-03T21:53:23.829Z,66.40
2022-09-03T21:56:14.253Z,66.40
2022-09-03T21:59:00.956Z,66.40
2022-09-03T22:01:34.716Z,66.40
2022-09-03T22:04:02.760Z,66.30
2022-09-03T22:06:39.862Z,66.30
2022-09-03T22:09:13.839Z,66.30
2022-09-03T22:11:50.303Z,66.30
2022-09-03T22:14:20.852Z,66.30
2022-09-03T22:16:55.075Z,66.20
2022-09-03T22:19:23.257Z,66.20
2022-09-03T22:21:59.641Z,66.30
2022-09-03T22:24:38.829Z,66.20
2022-09-03T22:27:15.465Z,66.20
2022-09-03T22:29:54.015Z,66.20
2022-09-03T22:32:36.264Z,66.10
2022-09-03T22:35:18.823Z,66.10
2022-09-03T22:38:01.688Z,66.10
2022-09-03T22:40:39.455Z,66.10
2022-09-03T22:43:25.572Z,66.10
2022-09-03T22:46:07.107Z,66.10
2022-09-03T22:48:58.863Z,66.10
2022-09-03T22:51:28.891Z,66.00
2022-09-03T22:54:13.103Z,66.10
2022-09-03T22:56:42.710Z,66.10
2022-09-03T22:59:14.906Z,66.00
2022-09-03T23:01:46.236Z,66.00
2022-09-03T23:04:22.325Z,66.00
2022-09-03T23:06:58.413Z,65.90
2022-09-03T23:09:29.754Z,65.90
2022-09-03T23:12:01.605Z,65.90
2022-09-03T23:14:36.185Z,65.90
2022-09-03T23:17:11.175Z,65.90
2022-09-03T23:19:43.687Z,65.90
2022-09-03T23:22:14.294Z,65.90
2022-09-03T23:24:48.075Z,65.90
2022-09-03T23:27:21.167Z,65.90
2022-09-03T23:29:54.107Z,65.90
2022-09-03T23:32:25.593Z,65.90
2022-09-03T23:35:00.247Z,65.90
2022-09-03T23:37:46.113Z,65.90
2022-09-03T23:40:49.373Z,65.90
2022-09-03T23:43:54.589Z,65.80
2022-09-03T23:46:29.033Z,65.80
2022-09-03T23:49:25.114Z,65.80
2022-09-03T23:52:15.593Z,65.80
2022-09-03T23:54:48.726Z,65.80
2022-09-03T23:57:24.459Z,65.80
